Campo Florido, Brazil
Current Conditions -  °F | °C
As of 10:00 PM on Saturday 22 Nov 2014 (Local Time) from SBUR Reporting Station
Light Rain Light Rain  
Wind Chill: 70°   Ceiling: Unl
Heat Index: 70°   Visibility: 6mi
Dew Point: 70°   Wind: 5mph
Humidity: 100%   Direction: 270°W
Pressure: 30.03"   Gusts: NA
Location:  19.76°S, 48.57°W
Report Text: SBUR 230000Z 27004KT 9999 -RA SCT020 21/21 Q1017
Loading
Personal Weather Stations






























Interactive Weather Map New forecast layout! Learn more

10-Day Weather Forecast

Advertisements
Track Severe Weather on mobile